sensor_id;sensor_type;location;lat;lon;timestamp;temperature;humidity
21759;DHT22;11041;50.854;20.580;2023-05-01T00:01:30;3.40;99.90
21759;DHT22;11041;50.854;20.580;2023-05-01T00:03:56;3.40;99.90
21759;DHT22;11041;50.854;20.580;2023-05-01T00:06:23;3.30;99.90
21759;DHT22;11041;50.854;20.580;2023-05-01T00:08:52;3.20;99.90
21759;DHT22;11041;50.854;20.580;2023-05-01T00:11:19;3.20;99.90
21759;DHT22;11041;50.854;20.580;2023-05-01T00:13:45;3.20;99.90
21759;DHT22;11041;50.854;20.580;2023-05-01T00:16:12;3.10;99.90
21759;DHT22;11041;50.854;20.580;2023-05-01T00:18:39;3.10;99.90
21759;DHT22;11041;50.854;20.580;2023-05-01T00:21:05;3.00;99.90
21759;DHT22;11041;50.854;20.580;2023-05-01T00:23:32;3.00;99.90
21759;DHT22;11041;50.854;20.580;2023-05-01T00:25:58;2.90;99.90
21759;DHT22;11041;50.854;20.580;2023-05-01T00:28:25;2.80;99.90
21759;DHT22;11041;50.854;20.580;2023-05-01T00:30:51;2.80;99.90
21759;DHT22;11041;50.854;20.580;2023-05-01T00:33:18;2.70;99.90
21759;DHT22;11041;50.854;20.580;2023-05-01T00:35:45;2.70;99.90
21759;DHT22;11041;50.854;20.580;2023-05-01T00:38:12;2.70;99.90
21759;DHT22;11041;50.854;20.580;2023-05-01T00:40:45;2.70;99.90
21759;DHT22;11041;50.854;20.580;2023-05-01T00:43:12;2.70;99.90
21759;DHT22;11041;50.854;20.580;2023-05-01T00:45:42;2.70;99.90
21759;DHT22;11041;50.854;20.580;2023-05-01T00:48:10;2.60;99.90
21759;DHT22;11041;50.854;20.580;2023-05-01T00:50:37;2.50;99.90
21759;DHT22;11041;50.854;20.580;2023-05-01T00:53:04;2.50;99.90
21759;DHT22;11041;50.854;20.580;2023-05-01T00:55:31;2.50;99.90
21759;DHT22;11041;50.854;20.580;2023-05-01T00:57:59;2.50;99.90
21759;DHT22;11041;50.854;20.580;2023-05-01T01:00:27;2.50;99.90
21759;DHT22;11041;50.854;20.580;2023-05-01T01:02:54;2.50;99.90
21759;DHT22;11041;50.854;20.580;2023-05-01T01:05:24;2.50;99.90
21759;DHT22;11041;50.854;20.580;2023-05-01T01:07:59;2.40;99.90
21759;DHT22;11041;50.854;20.580;2023-05-01T01:14:10;2.40;99.90
21759;DHT22;11041;50.854;20.580;2023-05-01T01:16:53;2.50;99.90
21759;DHT22;11041;50.854;20.580;2023-05-01T01:23:00;2.40;99.90
21759;DHT22;11041;50.854;20.580;2023-05-01T01:26:20;2.10;99.90
21759;DHT22;11041;50.854;20.580;2023-05-01T01:35:27;2.10;99.90
21759;DHT22;11041;50.854;20.580;2023-05-01T01:38:04;2.00;99.90
21759;DHT22;11041;50.854;20.580;2023-05-01T01:40:38;2.00;99.90
21759;DHT22;11041;50.854;20.580;2023-05-01T01:43:17;1.90;99.90
21759;DHT22;11041;50.854;20.580;2023-05-01T01:45:49;2.00;99.90
21759;DHT22;11041;50.854;20.580;2023-05-01T01:48:41;2.00;99.90
21759;DHT22;11041;50.854;20.580;2023-05-01T01:51:15;2.10;99.90
21759;DHT22;11041;50.854;20.580;2023-05-01T01:53:52;2.10;99.90
21759;DHT22;11041;50.854;20.580;2023-05-01T01:56:22;2.10;99.90
21759;DHT22;11041;50.854;20.580;2023-05-01T01:58:53;2.10;99.90
21759;DHT22;11041;50.854;20.580;2023-05-01T02:01:22;2.10;99.90
21759;DHT22;11041;50.854;20.580;2023-05-01T02:03:51;2.00;99.90
21759;DHT22;11041;50.854;20.580;2023-05-01T02:06:20;2.00;99.90
21759;DHT22;11041;50.854;20.580;2023-05-01T02:08:49;2.00;99.90
21759;DHT22;11041;50.854;20.580;2023-05-01T02:11:19;2.00;99.90
21759;DHT22;11041;50.854;20.580;2023-05-01T02:13:48;2.00;99.90
21759;DHT22;11041;50.854;20.580;2023-05-01T02:16:18;1.90;99.90
21759;DHT22;11041;50.854;20.580;2023-05-01T02:18:50;2.00;99.90
21759;DHT22;11041;50.854;20.580;2023-05-01T02:21:19;2.00;99.90
21759;DHT22;11041;50.854;20.580;2023-05-01T02:23:47;2.00;99.90
21759;DHT22;11041;50.854;20.580;2023-05-01T02:26:15;2.00;99.90
21759;DHT22;11041;50.854;20.580;2023-05-01T02:28:44;2.00;99.90
21759;DHT22;11041;50.854;20.580;2023-05-01T02:31:10;2.00;99.90
21759;DHT22;11041;50.854;20.580;2023-05-01T02:33:37;2.10;99.90
21759;DHT22;11041;50.854;20.580;2023-05-01T02:36:03;2.10;99.90
21759;DHT22;11041;50.854;20.580;2023-05-01T02:38:30;2.10;99.90
21759;DHT22;11041;50.854;20.580;2023-05-01T02:40:59;2.00;99.90
21759;DHT22;11041;50.854;20.580;2023-05-01T02:43:27;2.00;99.90
21759;DHT22;11041;50.854;20.580;2023-05-01T02:46:00;2.00;99.90
21759;DHT22;11041;50.854;20.580;2023-05-01T02:48:29;2.00;99.90
21759;DHT22;11041;50.854;20.580;2023-05-01T02:50:59;1.90;99.90
21759;DHT22;11041;50.854;20.580;2023-05-01T02:53:27;1.80;99.90
21759;DHT22;11041;50.854;20.580;2023-05-01T02:55:54;1.70;99.90
21759;DHT22;11041;50.854;20.580;2023-05-01T02:58:21;1.70;99.90
21759;DHT22;11041;50.854;20.580;2023-05-01T03:00:49;1.80;99.90
21759;DHT22;11041;50.854;20.580;2023-05-01T03:03:16;1.80;99.90
21759;DHT22;11041;50.854;20.580;2023-05-01T03:05:43;1.80;99.90
21759;DHT22;11041;50.854;20.580;2023-05-01T03:08:09;1.80;99.90
21759;DHT22;11041;50.854;20.580;2023-05-01T03:10:39;1.80;99.90
21759;DHT22;11041;50.854;20.580;2023-05-01T03:13:07;1.90;99.90
21759;DHT22;11041;50.854;20.580;2023-05-01T03:15:36;1.80;99.90
21759;DHT22;11041;50.854;20.580;2023-05-01T03:18:04;1.70;99.90
21759;DHT22;11041;50.854;20.580;2023-05-01T03:20:31;1.80;99.90
21759;DHT22;11041;50.854;20.580;2023-05-01T03:22:59;1.80;99.90
21759;DHT22;11041;50.854;20.580;2023-05-01T03:25:25;1.90;99.90
21759;DHT22;11041;50.854;20.580;2023-05-01T03:27:52;1.90;99.90
21759;DHT22;11041;50.854;20.580;2023-05-01T03:30:18;1.90;99.90
21759;DHT22;11041;50.854;20.580;2023-05-01T03:32:45;1.80;99.90
21759;DHT22;11041;50.854;20.580;2023-05-01T03:35:12;1.40;99.90
21759;DHT22;11041;50.854;20.580;2023-05-01T03:37:38;0.80;99.90
21759;DHT22;11041;50.854;20.580;2023-05-01T03:40:05;1.10;99.90
21759;DHT22;11041;50.854;20.580;2023-05-01T03:42:32;1.30;99.90
21759;DHT22;11041;50.854;20.580;2023-05-01T03:44:58;1.40;99.90
21759;DHT22;11041;50.854;20.580;2023-05-01T03:47:25;1.50;99.90
21759;DHT22;11041;50.854;20.580;2023-05-01T03:49:52;1.50;99.90
21759;DHT22;11041;50.854;20.580;2023-05-01T03:52:18;1.50;99.90
21759;DHT22;11041;50.854;20.580;2023-05-01T03:54:45;1.40;99.90
21759;DHT22;11041;50.854;20.580;2023-05-01T03:57:11;1.20;99.90
21759;DHT22;11041;50.854;20.580;2023-05-01T03:59:39;1.00;99.90
21759;DHT22;11041;50.854;20.580;2023-05-01T04:02:08;1.00;99.90
21759;DHT22;11041;50.854;20.580;2023-05-01T04:04:35;1.20;99.90
21759;DHT22;11041;50.854;20.580;2023-05-01T04:07:01;1.30;99.90
21759;DHT22;11041;50.854;20.580;2023-05-01T04:09:28;1.50;99.90
21759;DHT22;11041;50.854;20.580;2023-05-01T04:11:55;1.70;99.90
21759;DHT22;11041;50.854;20.580;2023-05-01T04:14:22;1.90;99.90
21759;DHT22;11041;50.854;20.580;2023-05-01T04:16:49;1.90;99.90
21759;DHT22;11041;50.854;20.580;2023-05-01T04:19:16;1.90;99.90
21759;DHT22;11041;50.854;20.580;2023-05-01T04:21:42;2.10;99.90
21759;DHT22;11041;50.854;20.580;2023-05-01T04:24:09;2.20;99.90
21759;DHT22;11041;50.854;20.580;2023-05-01T04:26:35;2.30;99.90
21759;DHT22;11041;50.854;20.580;2023-05-01T04:29:02;2.40;99.90
21759;DHT22;11041;50.854;20.580;2023-05-01T04:31:29;2.60;99.90
21759;DHT22;11041;50.854;20.580;2023-05-01T04:33:56;2.70;99.90
21759;DHT22;11041;50.854;20.580;2023-05-01T04:36:23;2.80;99.90
21759;DHT22;11041;50.854;20.580;2023-05-01T04:38:50;2.90;99.90
21759;DHT22;11041;50.854;20.580;2023-05-01T04:41:16;1.70;99.90
21759;DHT22;11041;50.854;20.580;2023-05-01T04:43:42;3.10;99.90
21759;DHT22;11041;50.854;20.580;2023-05-01T04:46:09;3.20;99.90
21759;DHT22;11041;50.854;20.580;2023-05-01T04:48:36;3.30;99.90
21759;DHT22;11041;50.854;20.580;2023-05-01T04:51:03;3.40;99.90
21759;DHT22;11041;50.854;20.580;2023-05-01T04:53:29;3.40;99.90
21759;DHT22;11041;50.854;20.580;2023-05-01T04:55:57;3.50;99.90
21759;DHT22;11041;50.854;20.580;2023-05-01T04:58:24;3.60;99.90
21759;DHT22;11041;50.854;20.580;2023-05-01T05:00:50;3.70;99.90
21759;DHT22;11041;50.854;20.580;2023-05-01T05:03:17;3.80;99.90
21759;DHT22;11041;50.854;20.580;2023-05-01T05:05:44;3.90;99.90
21759;DHT22;11041;50.854;20.580;2023-05-01T05:08:12;4.00;99.90
21759;DHT22;11041;50.854;20.580;2023-05-01T05:10:38;4.10;99.90
21759;DHT22;11041;50.854;20.580;2023-05-01T05:13:05;4.20;99.90
21759;DHT22;11041;50.854;20.580;2023-05-01T05:15:31;4.40;99.90
21759;DHT22;11041;50.854;20.580;2023-05-01T05:17:58;4.50;99.90
21759;DHT22;11041;50.854;20.580;2023-05-01T05:20:24;4.60;99.90
21759;DHT22;11041;50.854;20.580;2023-05-01T05:22:51;4.70;99.90
21759;DHT22;11041;50.854;20.580;2023-05-01T05:25:18;4.80;99.90
21759;DHT22;11041;50.854;20.580;2023-05-01T05:27:46;4.90;99.90
21759;DHT22;11041;50.854;20.580;2023-05-01T05:30:13;5.00;99.90
21759;DHT22;11041;50.854;20.580;2023-05-01T05:32:42;5.10;99.90
21759;DHT22;11041;50.854;20.580;2023-05-01T05:35:10;5.20;99.90
21759;DHT22;11041;50.854;20.580;2023-05-01T05:37:37;5.40;99.90
21759;DHT22;11041;50.854;20.580;2023-05-01T05:40:04;5.50;99.90
21759;DHT22;11041;50.854;20.580;2023-05-01T05:42:32;5.60;99.90
21759;DHT22;11041;50.854;20.580;2023-05-01T05:44:59;5.70;99.90
21759;DHT22;11041;50.854;20.580;2023-05-01T05:47:27;5.90;99.90
21759;DHT22;11041;50.854;20.580;2023-05-01T05:49:57;6.00;99.90
21759;DHT22;11041;50.854;20.580;2023-05-01T05:52:28;6.20;99.90
21759;DHT22;11041;50.854;20.580;2023-05-01T05:54:59;6.60;99.90
21759;DHT22;11041;50.854;20.580;2023-05-01T05:57:31;6.80;99.90
21759;DHT22;11041;50.854;20.580;2023-05-01T06:00:03;7.00;99.90
21759;DHT22;11041;50.854;20.580;2023-05-01T06:02:32;7.30;99.90
21759;DHT22;11041;50.854;20.580;2023-05-01T06:05:00;7.80;99.90
21759;DHT22;11041;50.854;20.580;2023-05-01T06:07:27;8.10;99.90
21759;DHT22;11041;50.854;20.580;2023-05-01T06:09:55;8.10;99.90
21759;DHT22;11041;50.854;20.580;2023-05-01T06:12:28;8.20;99.90
21759;DHT22;11041;50.854;20.580;2023-05-01T06:14:57;8.50;99.90
21759;DHT22;11041;50.854;20.580;2023-05-01T06:17:25;8.50;99.90
21759;DHT22;11041;50.854;20.580;2023-05-01T06:19:52;8.60;99.90
21759;DHT22;11041;50.854;20.580;2023-05-01T06:22:20;8.80;99.90
21759;DHT22;11041;50.854;20.580;2023-05-01T06:24:47;8.90;99.90
21759;DHT22;11041;50.854;20.580;2023-05-01T06:27:17;9.00;99.90
21759;DHT22;11041;50.854;20.580;2023-05-01T06:29:48;9.10;99.90
21759;DHT22;11041;50.854;20.580;2023-05-01T06:32:21;9.20;99.90
21759;DHT22;11041;50.854;20.580;2023-05-01T06:34:48;9.40;99.90
21759;DHT22;11041;50.854;20.580;2023-05-01T06:37:16;9.40;99.90
21759;DHT22;11041;50.854;20.580;2023-05-01T06:39:43;9.50;99.90
21759;DHT22;11041;50.854;20.580;2023-05-01T06:42:11;9.60;99.90
21759;DHT22;11041;50.854;20.580;2023-05-01T06:44:41;9.70;99.90
21759;DHT22;11041;50.854;20.580;2023-05-01T06:47:09;9.80;99.90
21759;DHT22;11041;50.854;20.580;2023-05-01T06:49:36;9.90;99.90
21759;DHT22;11041;50.854;20.580;2023-05-01T06:52:04;9.90;99.90
21759;DHT22;11041;50.854;20.580;2023-05-01T06:54:31;10.00;99.90
21759;DHT22;11041;50.854;20.580;2023-05-01T06:56:58;10.20;99.90
21759;DHT22;11041;50.854;20.580;2023-05-01T06:59:26;10.40;99.90
21759;DHT22;11041;50.854;20.580;2023-05-01T07:01:53;10.40;99.90
21759;DHT22;11041;50.854;20.580;2023-05-01T07:04:20;10.50;99.90
21759;DHT22;11041;50.854;20.580;2023-05-01T07:06:47;10.50;99.90
21759;DHT22;11041;50.854;20.580;2023-05-01T07:09:14;10.50;99.90
21759;DHT22;11041;50.854;20.580;2023-05-01T07:11:41;10.60;99.90
21759;DHT22;11041;50.854;20.580;2023-05-01T07:14:08;10.60;99.90
21759;DHT22;11041;50.854;20.580;2023-05-01T07:16:34;10.70;99.90
21759;DHT22;11041;50.854;20.580;2023-05-01T07:19:01;10.80;99.90
21759;DHT22;11041;50.854;20.580;2023-05-01T07:21:27;10.80;99.90
21759;DHT22;11041;50.854;20.580;2023-05-01T07:23:54;10.90;99.90
21759;DHT22;11041;50.854;20.580;2023-05-01T07:26:21;11.20;99.90
21759;DHT22;11041;50.854;20.580;2023-05-01T07:28:47;11.30;99.90
21759;DHT22;11041;50.854;20.580;2023-05-01T07:31:14;11.30;99.90
21759;DHT22;11041;50.854;20.580;2023-05-01T07:33:41;11.30;99.90
21759;DHT22;11041;50.854;20.580;2023-05-01T07:36:08;11.30;99.90
21759;DHT22;11041;50.854;20.580;2023-05-01T07:38:34;11.30;99.90
21759;DHT22;11041;50.854;20.580;2023-05-01T07:41:01;11.40;99.90
21759;DHT22;11041;50.854;20.580;2023-05-01T07:43:27;11.60;99.90
21759;DHT22;11041;50.854;20.580;2023-05-01T07:45:58;11.70;99.90
21759;DHT22;11041;50.854;20.580;2023-05-01T07:48:27;11.70;99.90
21759;DHT22;11041;50.854;20.580;2023-05-01T07:50:54;11.70;99.90
21759;DHT22;11041;50.854;20.580;2023-05-01T07:53:22;11.80;99.90
21759;DHT22;11041;50.854;20.580;2023-05-01T07:55:49;11.80;99.90
21759;DHT22;11041;50.854;20.580;2023-05-01T07:58:16;11.80;98.10
21759;DHT22;11041;50.854;20.580;2023-05-01T08:00:42;11.80;99.50
21759;DHT22;11041;50.854;20.580;2023-05-01T08:03:12;11.90;99.90
21759;DHT22;11041;50.854;20.580;2023-05-01T08:05:40;12.10;95.20
21759;DHT22;11041;50.854;20.580;2023-05-01T08:08:07;12.00;96.90
21759;DHT22;11041;50.854;20.580;2023-05-01T08:10:34;12.00;97.40
21759;DHT22;11041;50.854;20.580;2023-05-01T08:13:01;12.10;98.90
21759;DHT22;11041;50.854;20.580;2023-05-01T08:15:28;12.20;96.80
21759;DHT22;11041;50.854;20.580;2023-05-01T08:17:55;12.20;95.40
21759;DHT22;11041;50.854;20.580;2023-05-01T08:20:21;12.30;93.90
21759;DHT22;11041;50.854;20.580;2023-05-01T08:22:48;12.40;94.30
21759;DHT22;11041;50.854;20.580;2023-05-01T08:25:15;12.40;92.90
21759;DHT22;11041;50.854;20.580;2023-05-01T08:27:41;12.40;95.10
21759;DHT22;11041;50.854;20.580;2023-05-01T08:30:08;12.40;95.50
21759;DHT22;11041;50.854;20.580;2023-05-01T08:32:35;12.50;97.40
21759;DHT22;11041;50.854;20.580;2023-05-01T08:35:02;12.60;95.50
21759;DHT22;11041;50.854;20.580;2023-05-01T08:37:28;12.50;94.10
21759;DHT22;11041;50.854;20.580;2023-05-01T08:39:56;12.70;93.20
21759;DHT22;11041;50.854;20.580;2023-05-01T08:42:22;12.80;92.60
21759;DHT22;11041;50.854;20.580;2023-05-01T08:44:50;13.00;91.60
21759;DHT22;11041;50.854;20.580;2023-05-01T08:47:20;12.90;92.50
21759;DHT22;11041;50.854;20.580;2023-05-01T08:49:49;12.80;91.90
21759;DHT22;11041;50.854;20.580;2023-05-01T08:52:19;12.80;91.80
21759;DHT22;11041;50.854;20.580;2023-05-01T08:54:49;12.90;92.20
21759;DHT22;11041;50.854;20.580;2023-05-01T08:57:20;12.90;92.30
21759;DHT22;11041;50.854;20.580;2023-05-01T08:59:47;13.00;90.90
21759;DHT22;11041;50.854;20.580;2023-05-01T09:02:16;12.90;90.60
21759;DHT22;11041;50.854;20.580;2023-05-01T09:04:44;12.90;93.80
21759;DHT22;11041;50.854;20.580;2023-05-01T09:07:12;13.00;93.00
21759;DHT22;11041;50.854;20.580;2023-05-01T09:09:39;13.00;92.90
21759;DHT22;11041;50.854;20.580;2023-05-01T09:12:24;13.20;91.90
21759;DHT22;11041;50.854;20.580;2023-05-01T09:14:53;13.10;93.00
21759;DHT22;11041;50.854;20.580;2023-05-01T09:17:22;12.90;91.50
21759;DHT22;11041;50.854;20.580;2023-05-01T09:19:50;13.10;92.20
21759;DHT22;11041;50.854;20.580;2023-05-01T09:22:17;13.20;91.00
21759;DHT22;11041;50.854;20.580;2023-05-01T09:24:45;13.20;90.80
21759;DHT22;11041;50.854;20.580;2023-05-01T09:27:12;13.30;92.50
21759;DHT22;11041;50.854;20.580;2023-05-01T09:29:44;13.20;91.30
21759;DHT22;11041;50.854;20.580;2023-05-01T09:32:17;13.20;91.20
21759;DHT22;11041;50.854;20.580;2023-05-01T09:34:51;13.20;91.70
21759;DHT22;11041;50.854;20.580;2023-05-01T09:37:32;13.40;92.60
21759;DHT22;11041;50.854;20.580;2023-05-01T09:42:50;13.50;92.60
21759;DHT22;11041;50.854;20.580;2023-05-01T09:45:18;13.50;90.50
21759;DHT22;11041;50.854;20.580;2023-05-01T09:47:45;13.40;90.30
21759;DHT22;11041;50.854;20.580;2023-05-01T09:50:32;13.50;91.40
21759;DHT22;11041;50.854;20.580;2023-05-01T09:53:00;13.70;92.70
21759;DHT22;11041;50.854;20.580;2023-05-01T09:55:30;13.70;92.60
21759;DHT22;11041;50.854;20.580;2023-05-01T09:57:57;13.80;92.40
21759;DHT22;11041;50.854;20.580;2023-05-01T10:00:27;13.80;92.20
21759;DHT22;11041;50.854;20.580;2023-05-01T10:02:54;13.90;91.20
21759;DHT22;11041;50.854;20.580;2023-05-01T10:05:21;13.90;90.00
21759;DHT22;11041;50.854;20.580;2023-05-01T10:08:00;14.00;86.70
21759;DHT22;11041;50.854;20.580;2023-05-01T10:10:30;14.10;89.10
21759;DHT22;11041;50.854;20.580;2023-05-01T10:13:15;14.20;87.00
21759;DHT22;11041;50.854;20.580;2023-05-01T10:15:45;14.60;89.80
21759;DHT22;11041;50.854;20.580;2023-05-01T10:18:12;14.60;90.40
21759;DHT22;11041;50.854;20.580;2023-05-01T10:20:39;14.60;83.00
21759;DHT22;11041;50.854;20.580;2023-05-01T10:23:06;14.50;86.00
21759;DHT22;11041;50.854;20.580;2023-05-01T10:25:34;14.40;90.50
21759;DHT22;11041;50.854;20.580;2023-05-01T10:28:05;14.40;90.10
21759;DHT22;11041;50.854;20.580;2023-05-01T10:30:33;14.40;86.30
21759;DHT22;11041;50.854;20.580;2023-05-01T10:33:03;14.40;89.60
21759;DHT22;11041;50.854;20.580;2023-05-01T10:35:36;14.70;86.30
21759;DHT22;11041;50.854;20.580;2023-05-01T10:38:10;14.80;85.90
21759;DHT22;11041;50.854;20.580;2023-05-01T10:40:46;14.90;84.10
21759;DHT22;11041;50.854;20.580;2023-05-01T10:43:28;15.00;82.50
21759;DHT22;11041;50.854;20.580;2023-05-01T10:51:19;15.10;82.70
21759;DHT22;11041;50.854;20.580;2023-05-01T10:53:48;15.30;82.40
21759;DHT22;11041;50.854;20.580;2023-05-01T10:59:02;15.10;86.40
21759;DHT22;11041;50.854;20.580;2023-05-01T11:01:34;15.20;88.80
21759;DHT22;11041;50.854;20.580;2023-05-01T11:09:47;15.20;89.00
21759;DHT22;11041;50.854;20.580;2023-05-01T11:15:23;15.70;86.80
21759;DHT22;11041;50.854;20.580;2023-05-01T11:17:51;15.50;85.10
21759;DHT22;11041;50.854;20.580;2023-05-01T11:22:55;15.60;82.90
21759;DHT22;11041;50.854;20.580;2023-05-01T11:25:24;15.80;83.80
21759;DHT22;11041;50.854;20.580;2023-05-01T11:27:55;15.90;84.90
21759;DHT22;11041;50.854;20.580;2023-05-01T11:30:24;16.10;82.80
21759;DHT22;11041;50.854;20.580;2023-05-01T11:32:51;16.30;82.00
21759;DHT22;11041;50.854;20.580;2023-05-01T11:35:23;16.40;77.00
21759;DHT22;11041;50.854;20.580;2023-05-01T11:37:52;16.00;76.20
21759;DHT22;11041;50.854;20.580;2023-05-01T11:40:24;16.10;79.80
21759;DHT22;11041;50.854;20.580;2023-05-01T11:45:30;16.60;80.10
21759;DHT22;11041;50.854;20.580;2023-05-01T11:47:58;16.90;81.30
21759;DHT22;11041;50.854;20.580;2023-05-01T11:50:51;16.80;78.50
21759;DHT22;11041;50.854;20.580;2023-05-01T11:53:17;16.80;81.30
21759;DHT22;11041;50.854;20.580;2023-05-01T11:55:44;17.20;74.60
21759;DHT22;11041;50.854;20.580;2023-05-01T11:58:12;17.40;75.50
21759;DHT22;11041;50.854;20.580;2023-05-01T12:00:42;17.70;78.80
21759;DHT22;11041;50.854;20.580;2023-05-01T12:03:11;17.20;77.30
21759;DHT22;11041;50.854;20.580;2023-05-01T12:05:41;17.60;79.30
21759;DHT22;11041;50.854;20.580;2023-05-01T12:10:37;17.80;73.30
21759;DHT22;11041;50.854;20.580;2023-05-01T12:13:08;18.10;73.80
21759;DHT22;11041;50.854;20.580;2023-05-01T12:15:42;18.40;73.40
21759;DHT22;11041;50.854;20.580;2023-05-01T12:18:12;18.70;73.20
21759;DHT22;11041;50.854;20.580;2023-05-01T12:20:42;18.80;70.40
21759;DHT22;11041;50.854;20.580;2023-05-01T12:23:11;19.00;70.60
21759;DHT22;11041;50.854;20.580;2023-05-01T12:25:42;19.10;65.80
21759;DHT22;11041;50.854;20.580;2023-05-01T12:28:18;19.20;69.40
21759;DHT22;11041;50.854;20.580;2023-05-01T12:30:48;19.20;65.00
21759;DHT22;11041;50.854;20.580;2023-05-01T12:33:19;19.40;68.20
21759;DHT22;11041;50.854;20.580;2023-05-01T12:35:47;19.30;67.90
21759;DHT22;11041;50.854;20.580;2023-05-01T12:38:17;19.30;65.30
21759;DHT22;11041;50.854;20.580;2023-05-01T12:40:56;19.50;65.20
21759;DHT22;11041;50.854;20.580;2023-05-01T12:43:32;19.60;65.30
21759;DHT22;11041;50.854;20.580;2023-05-01T12:46:02;19.50;62.50
21759;DHT22;11041;50.854;20.580;2023-05-01T12:48:30;19.50;63.80
21759;DHT22;11041;50.854;20.580;2023-05-01T12:51:00;19.60;66.50
21759;DHT22;11041;50.854;20.580;2023-05-01T12:53:27;19.40;66.80
21759;DHT22;11041;50.854;20.580;2023-05-01T12:55:56;19.50;67.90
21759;DHT22;11041;50.854;20.580;2023-05-01T12:58:36;20.00;67.00
21759;DHT22;11041;50.854;20.580;2023-05-01T13:01:03;20.00;64.60
21759;DHT22;11041;50.854;20.580;2023-05-01T13:03:33;20.20;63.60
21759;DHT22;11041;50.854;20.580;2023-05-01T13:06:01;20.50;65.40
21759;DHT22;11041;50.854;20.580;2023-05-01T13:08:31;20.60;64.90
21759;DHT22;11041;50.854;20.580;2023-05-01T13:11:01;20.80;64.60
21759;DHT22;11041;50.854;20.580;2023-05-01T13:13:47;20.90;64.70
21759;DHT22;11041;50.854;20.580;2023-05-01T13:16:15;21.40;64.60
21759;DHT22;11041;50.854;20.580;2023-05-01T13:18:47;21.30;60.80
21759;DHT22;11041;50.854;20.580;2023-05-01T13:21:22;21.50;59.00
21759;DHT22;11041;50.854;20.580;2023-05-01T13:23:57;21.60;60.10
21759;DHT22;11041;50.854;20.580;2023-05-01T13:26:30;21.70;60.90
21759;DHT22;11041;50.854;20.580;2023-05-01T13:29:02;21.50;60.30
21759;DHT22;11041;50.854;20.580;2023-05-01T13:31:30;21.60;56.30
21759;DHT22;11041;50.854;20.580;2023-05-01T13:33:58;21.60;59.30
21759;DHT22;11041;50.854;20.580;2023-05-01T13:36:27;21.70;57.30
21759;DHT22;11041;50.854;20.580;2023-05-01T13:38:59;22.00;57.20
21759;DHT22;11041;50.854;20.580;2023-05-01T13:41:27;22.00;55.70
21759;DHT22;11041;50.854;20.580;2023-05-01T13:43:56;22.20;55.80
21759;DHT22;11041;50.854;20.580;2023-05-01T13:46:23;22.40;56.00
21759;DHT22;11041;50.854;20.580;2023-05-01T13:48:54;21.90;55.20
21759;DHT22;11041;50.854;20.580;2023-05-01T13:51:23;22.40;55.90
21759;DHT22;11041;50.854;20.580;2023-05-01T13:53:52;22.60;56.10
21759;DHT22;11041;50.854;20.580;2023-05-01T13:56:21;22.70;52.30
21759;DHT22;11041;50.854;20.580;2023-05-01T13:58:48;22.60;53.90
21759;DHT22;11041;50.854;20.580;2023-05-01T14:01:17;22.80;55.40
21759;DHT22;11041;50.854;20.580;2023-05-01T14:03:46;22.90;53.40
21759;DHT22;11041;50.854;20.580;2023-05-01T14:06:16;23.60;50.20
21759;DHT22;11041;50.854;20.580;2023-05-01T14:08:45;23.80;51.50
21759;DHT22;11041;50.854;20.580;2023-05-01T14:11:13;23.80;51.50
21759;DHT22;11041;50.854;20.580;2023-05-01T14:13:45;23.90;51.90
21759;DHT22;11041;50.854;20.580;2023-05-01T14:16:25;23.80;54.40
21759;DHT22;11041;50.854;20.580;2023-05-01T14:18:56;23.90;53.40
21759;DHT22;11041;50.854;20.580;2023-05-01T14:21:24;23.60;52.60
21759;DHT22;11041;50.854;20.580;2023-05-01T14:23:55;24.20;51.30
21759;DHT22;11041;50.854;20.580;2023-05-01T14:26:22;24.20;50.60
21759;DHT22;11041;50.854;20.580;2023-05-01T14:28:50;24.40;51.40
21759;DHT22;11041;50.854;20.580;2023-05-01T14:31:29;24.40;53.60
21759;DHT22;11041;50.854;20.580;2023-05-01T14:33:58;24.80;51.80
21759;DHT22;11041;50.854;20.580;2023-05-01T14:36:27;24.70;51.10
21759;DHT22;11041;50.854;20.580;2023-05-01T14:39:00;24.70;51.40
21759;DHT22;11041;50.854;20.580;2023-05-01T14:41:28;24.90;51.20
21759;DHT22;11041;50.854;20.580;2023-05-01T14:43:56;24.60;48.40
21759;DHT22;11041;50.854;20.580;2023-05-01T14:46:32;24.50;48.10
21759;DHT22;11041;50.854;20.580;2023-05-01T14:49:00;24.50;48.80
21759;DHT22;11041;50.854;20.580;2023-05-01T14:51:28;24.50;49.30
21759;DHT22;11041;50.854;20.580;2023-05-01T14:53:57;24.80;50.20
21759;DHT22;11041;50.854;20.580;2023-05-01T14:56:24;24.40;50.70
21759;DHT22;11041;50.854;20.580;2023-05-01T14:58:51;24.50;52.30
21759;DHT22;11041;50.854;20.580;2023-05-01T15:01:18;24.30;51.70
21759;DHT22;11041;50.854;20.580;2023-05-01T15:03:45;24.70;51.10
21759;DHT22;11041;50.854;20.580;2023-05-01T15:06:11;24.60;50.40
21759;DHT22;11041;50.854;20.580;2023-05-01T15:08:38;24.40;50.90
21759;DHT22;11041;50.854;20.580;2023-05-01T15:11:05;24.70;50.20
21759;DHT22;11041;50.854;20.580;2023-05-01T15:13:31;24.60;49.70
21759;DHT22;11041;50.854;20.580;2023-05-01T15:15:58;24.40;52.10
21759;DHT22;11041;50.854;20.580;2023-05-01T15:18:25;24.40;52.60
21759;DHT22;11041;50.854;20.580;2023-05-01T15:20:51;24.40;51.40
21759;DHT22;11041;50.854;20.580;2023-05-01T15:23:18;24.50;52.00
21759;DHT22;11041;50.854;20.580;2023-05-01T15:25:44;24.60;52.50
21759;DHT22;11041;50.854;20.580;2023-05-01T15:28:12;24.30;49.80
21759;DHT22;11041;50.854;20.580;2023-05-01T15:30:44;23.60;50.10
21759;DHT22;11041;50.854;20.580;2023-05-01T15:33:14;23.20;51.50
21759;DHT22;11041;50.854;20.580;2023-05-01T15:35:41;23.00;52.10
21759;DHT22;11041;50.854;20.580;2023-05-01T15:38:08;23.00;54.00
21759;DHT22;11041;50.854;20.580;2023-05-01T15:40:35;22.60;55.10
21759;DHT22;11041;50.854;20.580;2023-05-01T15:43:04;22.10;55.30
21759;DHT22;11041;50.854;20.580;2023-05-01T15:45:31;22.00;56.20
21759;DHT22;11041;50.854;20.580;2023-05-01T15:47:58;21.60;57.40
21759;DHT22;11041;50.854;20.580;2023-05-01T15:50:25;21.20;56.80
21759;DHT22;11041;50.854;20.580;2023-05-01T15:52:52;21.00;56.60
21759;DHT22;11041;50.854;20.580;2023-05-01T15:55:19;21.00;57.60
21759;DHT22;11041;50.854;20.580;2023-05-01T15:57:46;20.90;57.00
21759;DHT22;11041;50.854;20.580;2023-05-01T16:00:14;20.30;59.10
21759;DHT22;11041;50.854;20.580;2023-05-01T16:02:42;20.20;58.80
21759;DHT22;11041;50.854;20.580;2023-05-01T16:05:10;19.90;59.50
21759;DHT22;11041;50.854;20.580;2023-05-01T16:07:38;19.70;59.50
21759;DHT22;11041;50.854;20.580;2023-05-01T16:10:07;19.40;60.00
21759;DHT22;11041;50.854;20.580;2023-05-01T16:12:34;19.20;61.40
21759;DHT22;11041;50.854;20.580;2023-05-01T16:15:01;19.10;59.50